createdAt,value
2022-08-28T00:00:33.812Z,0.4
2022-08-28T00:03:34.105Z,0.55
2022-08-28T00:06:34.000Z,0.55
2022-08-28T00:09:33.838Z,0.4
2022-08-28T00:12:33.904Z,0.35
2022-08-28T00:15:33.934Z,0.55
2022-08-28T00:18:33.934Z,0.4
2022-08-28T00:21:33.875Z,0.25
2022-08-28T00:24:33.900Z,0.35
2022-08-28T00:27:33.861Z,0.4
2022-08-28T00:30:33.915Z,0.5
2022-08-28T00:33:33.927Z,0.5
2022-08-28T00:36:33.914Z,0.45
2022-08-28T00:39:33.854Z,0.3
2022-08-28T00:42:33.890Z,0.7
2022-08-28T00:45:39.961Z,0.35
2022-08-28T00:48:33.887Z,0.5
2022-08-28T00:51:33.914Z,0.4
2022-08-28T00:54:33.914Z,0.6
2022-08-28T00:57:33.885Z,0.4
2022-08-28T01:00:33.875Z,0.65
2022-08-28T01:03:33.991Z,0.3
2022-08-28T01:06:33.922Z,0.4
2022-08-28T01:09:33.954Z,0.45
2022-08-28T01:12:33.949Z,0.3
2022-08-28T01:15:34.059Z,0.4
2022-08-28T01:18:33.930Z,0.15
2022-08-28T01:21:33.961Z,0.15
2022-08-28T01:24:33.923Z,0.4
2022-08-28T01:27:33.949Z,0.55
2022-08-28T01:30:33.949Z,0.3
2022-08-28T01:33:33.932Z,0.6
2022-08-28T01:36:33.950Z,0.35
2022-08-28T01:39:33.957Z,0.35
2022-08-28T01:42:34.002Z,0.35
2022-08-28T01:45:33.990Z,0.3
2022-08-28T01:48:34.010Z,0.35
2022-08-28T01:51:38.822Z,0.35
2022-08-28T01:54:34.575Z,0.55
2022-08-28T01:57:33.951Z,0.35
2022-08-28T02:00:33.921Z,0.6
2022-08-28T02:03:33.939Z,0.7
2022-08-28T02:06:33.998Z,0.45
2022-08-28T02:09:34.025Z,0.45
2022-08-28T02:12:34.076Z,0.9
2022-08-28T02:15:34.092Z,0.6
2022-08-28T02:18:34.031Z,0.8
2022-08-28T02:21:33.939Z,0.55
2022-08-28T02:24:33.929Z,0.4
2022-08-28T02:27:33.939Z,0.6
2022-08-28T02:30:34.034Z,0.5
2022-08-28T02:33:34.091Z,0.9
2022-08-28T02:36:34.037Z,0.55
2022-08-28T02:39:33.995Z,0.35
2022-08-28T02:42:34.004Z,0.6
2022-08-28T02:45:34.060Z,0.3
2022-08-28T02:48:34.076Z,0.6
2022-08-28T02:51:34.005Z,0.5
2022-08-28T02:54:34.007Z,0.2
2022-08-28T02:57:34.024Z,0.4
2022-08-28T03:00:33.995Z,0.3
2022-08-28T03:03:34.031Z,0.8
2022-08-28T03:06:34.065Z,0.6
2022-08-28T03:09:34.069Z,1
2022-08-28T03:12:34.095Z,0.95
2022-08-28T03:15:34.097Z,0.65
2022-08-28T03:18:34.145Z,0.2
2022-08-28T03:21:34.070Z,0.7
2022-08-28T03:24:34.016Z,0.6
2022-08-28T03:27:34.081Z,0.5
2022-08-28T03:30:34.141Z,0.5
2022-08-28T03:33:34.041Z,0.5
2022-08-28T03:36:34.115Z,0.6
2022-08-28T03:39:34.101Z,0.95
2022-08-28T03:42:34.010Z,0.75
2022-08-28T03:45:34.126Z,0.55
2022-08-28T03:48:34.338Z,0.6
2022-08-28T03:51:34.093Z,0.45
2022-08-28T03:54:34.060Z,0.95
2022-08-28T03:57:34.050Z,0.75
2022-08-28T04:00:34.156Z,0.5
2022-08-28T04:03:34.105Z,0.95
2022-08-28T04:06:36.961Z,0.9
2022-08-28T04:09:34.120Z,1.2
2022-08-28T04:12:36.365Z,0.55
2022-08-28T04:15:34.065Z,0.5
2022-08-28T04:18:34.096Z,0.8
2022-08-28T04:21:34.181Z,1.25
2022-08-28T04:24:34.127Z,1.1
2022-08-28T04:27:34.188Z,0.75
2022-08-28T04:30:34.182Z,0.85
2022-08-28T04:33:34.070Z,0.75
2022-08-28T04:36:34.105Z,1.15
2022-08-28T04:39:34.127Z,0.85
2022-08-28T04:42:34.127Z,0.65
2022-08-28T04:45:34.173Z,0.9
2022-08-28T04:48:34.125Z,0.8
2022-08-28T04:51:34.533Z,0.55
2022-08-28T04:54:34.130Z,0.7
2022-08-28T04:57:37.263Z,0.55
2022-08-28T05:00:34.112Z,0.6
2022-08-28T05:03:34.062Z,0.35
2022-08-28T05:06:34.145Z,0.4
2022-08-28T05:09:34.166Z,0.65
2022-08-28T05:12:34.226Z,0.8
2022-08-28T05:15:34.146Z,0.65
2022-08-28T05:18:34.237Z,0.55
2022-08-28T05:21:34.197Z,0.4
2022-08-28T05:24:34.156Z,0.4
2022-08-28T05:27:34.196Z,0.35
2022-08-28T05:30:35.086Z,0.65
2022-08-28T05:33:34.108Z,0.5
2022-08-28T05:36:34.222Z,0.5
2022-08-28T05:39:34.102Z,0.6
2022-08-28T05:42:39.267Z,0.4
2022-08-28T05:45:34.246Z,0.55
2022-08-28T05:48:39.435Z,1.05
2022-08-28T05:51:34.147Z,0.55
2022-08-28T05:54:34.562Z,0.55
2022-08-28T05:57:34.137Z,0.45
2022-08-28T06:00:34.180Z,0.6
2022-08-28T06:03:34.138Z,0.5
2022-08-28T06:06:34.160Z,0.75
2022-08-28T06:09:34.230Z,0.55
2022-08-28T06:12:34.135Z,0.6
2022-08-28T06:15:34.180Z,0.75
2022-08-28T06:18:35.072Z,1.05
2022-08-28T06:21:34.186Z,0.75
2022-08-28T06:24:34.166Z,0.9
2022-08-28T06:27:34.176Z,1.05
2022-08-28T06:30:34.197Z,1.2
2022-08-28T06:33:34.202Z,1
2022-08-28T06:36:34.190Z,0.55
2022-08-28T06:39:34.190Z,1.1
2022-08-28T06:42:34.146Z,0.8
2022-08-28T06:45:34.268Z,0.65
2022-08-28T06:48:34.160Z,0.3
2022-08-28T06:51:34.265Z,0.75
2022-08-28T06:54:34.706Z,0.75
2022-08-28T06:57:34.195Z,1.45
2022-08-28T07:00:34.241Z,0.85
2022-08-28T07:03:34.218Z,0.95
2022-08-28T07:06:34.241Z,0.9
2022-08-28T07:09:34.242Z,0.75
2022-08-28T07:12:34.194Z,0.25
2022-08-28T07:15:34.352Z,0.55
2022-08-28T07:18:34.246Z,0.4
2022-08-28T07:21:39.422Z,0.65
2022-08-28T07:24:34.237Z,0.35
2022-08-28T07:27:34.247Z,0.95
2022-08-28T07:30:34.228Z,0.35
2022-08-28T07:33:34.248Z,0.55
2022-08-28T07:36:34.230Z,1.1
2022-08-28T07:39:34.210Z,1
2022-08-28T07:42:36.637Z,0.95
2022-08-28T07:45:34.302Z,0.9
2022-08-28T07:48:34.293Z,0.55
2022-08-28T07:51:34.260Z,0.8
2022-08-28T07:54:34.205Z,0.7
2022-08-28T07:57:34.251Z,0.95
2022-08-28T08:00:34.287Z,1.15
2022-08-28T08:03:34.355Z,1
2022-08-28T08:06:35.330Z,1.05
2022-08-28T08:09:34.270Z,0.6
2022-08-28T08:12:35.740Z,0.25
2022-08-28T08:15:34.348Z,0.35
2022-08-28T08:18:34.300Z,0.35
2022-08-28T08:21:34.258Z,0.55
2022-08-28T08:24:34.316Z,0.4
2022-08-28T08:27:34.325Z,0.4
2022-08-28T08:30:34.242Z,0.3
2022-08-28T08:33:34.346Z,0.5
2022-08-28T08:36:34.266Z,0.4
2022-08-28T08:39:34.324Z,0.3
2022-08-28T08:42:34.308Z,0.3
2022-08-28T08:45:34.375Z,0.2
2022-08-28T08:48:34.324Z,0.4
2022-08-28T08:51:34.318Z,0.35
2022-08-28T08:54:34.323Z,0.35
2022-08-28T08:57:34.348Z,0.7
2022-08-28T09:00:34.524Z,0.65
2022-08-28T09:03:34.461Z,0.75
2022-08-28T09:06:34.361Z,0.45
2022-08-28T09:09:34.370Z,0.2
2022-08-28T09:12:34.416Z,0.3
2022-08-28T09:15:34.419Z,0.65
2022-08-28T09:18:34.384Z,0.25
2022-08-28T09:21:34.373Z,0.25
2022-08-28T09:24:34.426Z,0.5
2022-08-28T09:27:39.554Z,0.7
2022-08-28T09:30:34.362Z,0.45
2022-08-28T09:33:34.327Z,0.3
2022-08-28T09:36:34.418Z,0.3
2022-08-28T09:39:34.386Z,0.85
2022-08-28T09:42:34.385Z,0.3
2022-08-28T09:45:34.404Z,0.35
2022-08-28T09:48:34.347Z,0.85
2022-08-28T09:51:34.406Z,0.7
2022-08-28T09:54:34.344Z,0.75
2022-08-28T09:57:34.431Z,0.5
2022-08-28T10:00:34.432Z,0.4
2022-08-28T10:03:34.416Z,0.85
2022-08-28T10:06:34.412Z,0.75
2022-08-28T10:09:34.347Z,0.3
2022-08-28T10:12:34.388Z,1.3
2022-08-28T10:15:34.481Z,1.2
2022-08-28T10:18:35.042Z,1.05
2022-08-28T10:21:34.377Z,1.75
2022-08-28T10:24:34.411Z,1.25
2022-08-28T10:27:35.113Z,0.7
2022-08-28T10:30:34.473Z,0.8
2022-08-28T10:33:34.455Z,1.25
2022-08-28T10:36:36.061Z,1.3
2022-08-28T10:39:34.391Z,0.65
2022-08-28T10:42:37.288Z,1.05
2022-08-28T10:45:34.392Z,0.8
2022-08-28T10:48:34.438Z,1.05
2022-08-28T10:51:38.539Z,1
2022-08-28T10:54:34.421Z,0.45
2022-08-28T10:57:39.973Z,0.85
2022-08-28T11:00:34.418Z,0.7
2022-08-28T11:03:36.198Z,1.55
2022-08-28T11:06:34.474Z,1
2022-08-28T11:09:34.443Z,0.55
2022-08-28T11:12:34.402Z,0.45
2022-08-28T11:15:38.334Z,1.25
2022-08-28T11:18:34.422Z,1
2022-08-28T11:21:34.554Z,0.3
2022-08-28T11:24:34.492Z,0.45
2022-08-28T11:27:34.465Z,1.75
2022-08-28T11:30:34.592Z,0.9
2022-08-28T11:33:34.457Z,0.4
2022-08-28T11:36:34.461Z,0.65
2022-08-28T11:39:34.437Z,0.5
2022-08-28T11:42:34.463Z,1.5
2022-08-28T11:45:37.976Z,1.05
2022-08-28T11:48:34.506Z,1.05
2022-08-28T11:51:35.758Z,1.9
2022-08-28T11:54:34.518Z,2.4
2022-08-28T11:57:34.538Z,0.7
2022-08-28T12:00:34.493Z,1.6
2022-08-28T12:03:34.505Z,1.75
2022-08-28T12:06:34.512Z,0.85
2022-08-28T12:09:34.546Z,1.95
2022-08-28T12:12:34.622Z,1.35
2022-08-28T12:15:34.685Z,1.95
2022-08-28T12:18:34.503Z,1.35
2022-08-28T12:21:34.476Z,0.75
2022-08-28T12:24:34.501Z,1.55
2022-08-28T12:27:34.622Z,1.1
2022-08-28T12:30:34.593Z,1
2022-08-28T12:33:34.534Z,0.75
2022-08-28T12:36:34.492Z,0.45
2022-08-28T12:39:34.534Z,1.5
2022-08-28T12:42:34.662Z,0.7
2022-08-28T12:45:34.639Z,0.45
2022-08-28T12:48:34.561Z,0.45
2022-08-28T12:51:34.563Z,0.65
2022-08-28T12:54:34.583Z,0.65
2022-08-28T12:57:34.574Z,0.9
2022-08-28T13:00:34.562Z,1.1
2022-08-28T13:03:34.542Z,1.2
2022-08-28T13:06:34.577Z,1.4
2022-08-28T13:09:34.562Z,1.6
2022-08-28T13:12:55.675Z,2.1
2022-08-28T13:15:34.548Z,1.4
2022-08-28T13:18:34.601Z,1.4
2022-08-28T13:21:35.862Z,0.9
2022-08-28T13:24:34.582Z,2.25
2022-08-28T13:27:34.602Z,1.6
2022-08-28T13:30:34.735Z,1.65
2022-08-28T13:33:34.601Z,1.55
2022-08-28T13:36:34.551Z,1.2
2022-08-28T13:39:34.582Z,1.1
2022-08-28T13:42:34.542Z,0.9
2022-08-28T13:45:43.317Z,0.85
2022-08-28T13:48:34.563Z,0.65
2022-08-28T13:51:39.744Z,1
2022-08-28T13:54:34.606Z,0.6
2022-08-28T13:57:37.292Z,1.1
2022-08-28T14:00:34.632Z,0.8
2022-08-28T14:03:34.573Z,0.95
2022-08-28T14:06:34.593Z,1.7
2022-08-28T14:09:34.580Z,1.6
2022-08-28T14:12:34.706Z,1.35
2022-08-28T14:15:34.616Z,0.8
2022-08-28T14:18:34.668Z,0.65
2022-08-28T14:21:34.582Z,0.45
2022-08-28T14:24:34.673Z,1.15
2022-08-28T14:27:34.633Z,0.95
2022-08-28T14:30:34.639Z,1.55
2022-08-28T14:33:37.765Z,0.65
2022-08-28T14:36:34.681Z,0.95
2022-08-28T14:39:35.667Z,0.95
2022-08-28T14:42:34.669Z,0.65
2022-08-28T14:45:34.714Z,1.05
2022-08-28T14:48:34.721Z,0.55
2022-08-28T14:51:34.672Z,0.7
2022-08-28T14:54:34.678Z,0.65
2022-08-28T14:57:34.663Z,0.75
2022-08-28T15:00:34.709Z,1.3
2022-08-28T15:03:34.748Z,1.5
2022-08-28T15:06:34.634Z,1.1
2022-08-28T15:09:34.662Z,1.15
2022-08-28T15:12:34.671Z,1.6
2022-08-28T15:15:34.660Z,2.5
2022-08-28T15:18:34.669Z,2.2
2022-08-28T15:21:34.688Z,2.15
2022-08-28T15:24:34.724Z,1.45
2022-08-28T15:27:34.736Z,1.7
2022-08-28T15:30:34.676Z,0.7
2022-08-28T15:33:34.710Z,0.65
2022-08-28T15:36:36.042Z,0.45
2022-08-28T15:39:34.709Z,0.25
2022-08-28T15:42:34.677Z,0.65
2022-08-28T15:45:34.893Z,2
2022-08-28T15:48:35.099Z,1.8
2022-08-28T15:51:34.664Z,1.5
2022-08-28T15:54:34.737Z,1.05
2022-08-28T15:57:34.739Z,1.5
2022-08-28T16:00:34.796Z,1.4
2022-08-28T16:03:34.687Z,1.95
2022-08-28T16:06:34.711Z,1.6
2022-08-28T16:09:34.708Z,1.65
2022-08-28T16:12:34.738Z,1.4
2022-08-28T16:15:34.692Z,1.25
2022-08-28T16:18:34.769Z,1.6
2022-08-28T16:21:34.751Z,1.45
2022-08-28T16:24:34.738Z,0.95
2022-08-28T16:27:34.697Z,0.85
2022-08-28T16:30:35.057Z,0.9
2022-08-28T16:33:35.054Z,0.9
2022-08-28T16:36:34.789Z,0.85
2022-08-28T16:39:34.716Z,0.55
2022-08-28T16:42:34.922Z,0.25
2022-08-28T16:45:34.772Z,0.4
2022-08-28T16:48:34.742Z,0.6
2022-08-28T16:51:34.743Z,0.6
2022-08-28T16:54:34.699Z,0.9
2022-08-28T16:57:34.732Z,0.55
2022-08-28T17:00:44.483Z,0.9
2022-08-28T17:03:34.726Z,0.7
2022-08-28T17:06:34.785Z,0.5
2022-08-28T17:09:34.794Z,1.15
2022-08-28T17:12:34.774Z,0.35
2022-08-28T17:15:37.367Z,0.55
2022-08-28T17:18:34.803Z,0.65
2022-08-28T17:21:34.750Z,0.8
2022-08-28T17:24:34.775Z,0.65
2022-08-28T17:27:34.802Z,0.7
2022-08-28T17:30:34.800Z,0.8
2022-08-28T17:33:34.782Z,0.5
2022-08-28T17:36:35.299Z,0.3
2022-08-28T17:39:34.773Z,0.5
2022-08-28T17:42:34.828Z,0.2
2022-08-28T17:45:34.790Z,0.15
2022-08-28T17:48:34.845Z,0.05
2022-08-28T17:51:43.193Z,0.25
2022-08-28T17:54:34.804Z,0.25
2022-08-28T17:57:34.847Z,0.15
2022-08-28T18:00:34.839Z,0.2
2022-08-28T18:03:45.711Z,0.15
2022-08-28T18:06:34.862Z,0
2022-08-28T18:09:34.838Z,0.05
2022-08-28T18:12:34.858Z,0.1
2022-08-28T18:15:37.762Z,0.05
2022-08-28T18:18:37.504Z,0
2022-08-28T18:21:35.038Z,0.15
2022-08-28T18:24:34.859Z,0.45
2022-08-28T18:27:34.842Z,0.3
2022-08-28T18:30:35.562Z,0.3
2022-08-28T18:33:34.857Z,0.2
2022-08-28T18:36:34.824Z,0.2
2022-08-28T18:39:34.835Z,0.3
2022-08-28T18:42:34.863Z,0.35
2022-08-28T18:45:34.914Z,0.35
2022-08-28T18:48:34.882Z,0.5
2022-08-28T18:51:34.884Z,0.4
2022-08-28T18:54:34.897Z,0.35
2022-08-28T18:57:35.325Z,0.4
2022-08-28T19:00:34.879Z,0.35
2022-08-28T19:03:34.921Z,0.3
2022-08-28T19:06:34.889Z,0.25
2022-08-28T19:09:35.879Z,0.35
2022-08-28T19:12:34.878Z,0.35
2022-08-28T19:15:35.058Z,0.35
2022-08-28T19:18:34.906Z,0.35
2022-08-28T19:21:34.904Z,0.4
2022-08-28T19:24:34.917Z,0.45
2022-08-28T19:27:34.898Z,0.5
2022-08-28T19:30:34.912Z,0.35
2022-08-28T19:33:34.913Z,0.4
2022-08-28T19:36:34.979Z,0.25
2022-08-28T19:39:34.875Z,0.3
2022-08-28T19:42:34.927Z,0.3
2022-08-28T19:45:34.967Z,0.3
2022-08-28T19:48:34.932Z,0
2022-08-28T19:51:35.069Z,0.15
2022-08-28T19:54:34.948Z,0.2
2022-08-28T19:57:34.927Z,0.25
2022-08-28T20:00:34.977Z,0.2
2022-08-28T20:03:35.023Z,0.2
2022-08-28T20:06:34.960Z,0.25
2022-08-28T20:09:34.955Z,0.15
2022-08-28T20:12:34.924Z,0
2022-08-28T20:15:35.027Z,0.25
2022-08-28T20:18:34.997Z,0.25
2022-08-28T20:21:38.420Z,0.25
2022-08-28T20:24:34.912Z,0.25
2022-08-28T20:27:34.947Z,0.25
2022-08-28T20:30:35.100Z,0.3
2022-08-28T20:33:34.945Z,0.25
2022-08-28T20:36:35.003Z,0
2022-08-28T20:39:34.938Z,0
2022-08-28T20:42:35.078Z,0
2022-08-28T20:45:34.994Z,0
2022-08-28T20:48:34.935Z,0.25
2022-08-28T20:51:35.009Z,0.2
2022-08-28T20:54:34.973Z,0.2
2022-08-28T20:57:35.037Z,0.3
2022-08-28T21:00:35.073Z,0.6
2022-08-28T21:03:34.988Z,0.3
2022-08-28T21:06:35.057Z,0.2
2022-08-28T21:10:04.715Z,0.15
2022-08-28T21:12:35.162Z,0.3
2022-08-28T21:15:35.012Z,0.3
2022-08-28T21:18:34.978Z,0
2022-08-28T21:21:35.693Z,0.3
2022-08-28T21:24:34.969Z,0.15
2022-08-28T21:27:36.042Z,0
2022-08-28T21:30:35.131Z,0
2022-08-28T21:33:34.983Z,0
2022-08-28T21:36:35.043Z,0
2022-08-28T21:39:34.983Z,0.35
2022-08-28T21:42:35.009Z,0.45
2022-08-28T21:45:35.027Z,0.25
2022-08-28T21:48:35.203Z,0.2
2022-08-28T21:51:35.077Z,0.2
2022-08-28T21:54:35.002Z,0.1
2022-08-28T21:57:35.045Z,0
2022-08-28T22:00:35.042Z,0
2022-08-28T22:03:35.009Z,0
2022-08-28T22:06:35.079Z,0.45
2022-08-28T22:09:35.013Z,0.05
2022-08-28T22:12:35.057Z,0.3
2022-08-28T22:15:35.014Z,0.25
2022-08-28T22:18:35.419Z,0
2022-08-28T22:21:35.028Z,0.2
2022-08-28T22:24:35.023Z,0
2022-08-28T22:27:35.088Z,0
2022-08-28T22:30:35.548Z,0
2022-08-28T22:33:35.085Z,0
2022-08-28T22:36:35.070Z,0
2022-08-28T22:39:35.075Z,0
2022-08-28T22:42:35.095Z,0
2022-08-28T22:45:35.102Z,0
2022-08-28T22:48:35.103Z,0
2022-08-28T22:51:35.040Z,0
2022-08-28T22:54:35.095Z,0
2022-08-28T22:57:35.065Z,0
2022-08-28T23:00:35.085Z,0
2022-08-28T23:03:35.249Z,0
2022-08-28T23:06:35.070Z,0.6
2022-08-28T23:09:36.999Z,0.6
2022-08-28T23:12:35.088Z,0.4
2022-08-28T23:15:35.094Z,0.35
2022-08-28T23:19:06.333Z,0.5
2022-08-28T23:21:35.126Z,0.45
2022-08-28T23:24:35.109Z,0.45
2022-08-28T23:27:37.524Z,0.3
2022-08-28T23:30:35.225Z,0.25
2022-08-28T23:33:36.195Z,0.2
2022-08-28T23:36:36.575Z,0.5
2022-08-28T23:39:35.168Z,0.3
2022-08-28T23:42:35.125Z,0.2
2022-08-28T23:45:35.244Z,0.3
2022-08-28T23:48:36.220Z,0.3
2022-08-28T23:51:35.810Z,0.4
2022-08-28T23:54:35.085Z,0.45
2022-08-28T23:57:35.153Z,0.45
